sensor_id;sensor_type;location;lat;lon;timestamp;temperature;humidity
22224;DHT22;11281;52.194;21.006;2023-07-13T00:03:52;17.70;99.90
22224;DHT22;11281;52.194;21.006;2023-07-13T00:07:53;17.70;99.90
22224;DHT22;11281;52.194;21.006;2023-07-13T00:11:56;17.70;99.90
22224;DHT22;11281;52.194;21.006;2023-07-13T00:15:59;17.60;99.90
22224;DHT22;11281;52.194;21.006;2023-07-13T00:20:03;17.60;99.90
22224;DHT22;11281;52.194;21.006;2023-07-13T00:24:06;17.50;99.90
22224;DHT22;11281;52.194;21.006;2023-07-13T00:28:08;17.60;99.90
22224;DHT22;11281;52.194;21.006;2023-07-13T00:32:11;17.70;99.90
22224;DHT22;11281;52.194;21.006;2023-07-13T00:36:12;17.70;99.90
22224;DHT22;11281;52.194;21.006;2023-07-13T00:40:15;17.70;99.90
22224;DHT22;11281;52.194;21.006;2023-07-13T00:44:18;17.70;99.90
22224;DHT22;11281;52.194;21.006;2023-07-13T00:48:27;17.60;99.90
22224;DHT22;11281;52.194;21.006;2023-07-13T00:52:30;17.50;99.90
22224;DHT22;11281;52.194;21.006;2023-07-13T00:56:33;17.50;99.90
22224;DHT22;11281;52.194;21.006;2023-07-13T01:00:36;17.40;99.90
22224;DHT22;11281;52.194;21.006;2023-07-13T01:04:39;17.40;99.90
22224;DHT22;11281;52.194;21.006;2023-07-13T01:08:41;17.40;99.90
22224;DHT22;11281;52.194;21.006;2023-07-13T01:12:43;17.30;99.90
22224;DHT22;11281;52.194;21.006;2023-07-13T01:16:47;17.30;99.90
22224;DHT22;11281;52.194;21.006;2023-07-13T01:20:55;17.30;99.90
22224;DHT22;11281;52.194;21.006;2023-07-13T01:24:57;17.20;99.90
22224;DHT22;11281;52.194;21.006;2023-07-13T01:28:59;17.20;99.90
22224;DHT22;11281;52.194;21.006;2023-07-13T01:33:01;17.20;99.90
22224;DHT22;11281;52.194;21.006;2023-07-13T01:37:04;17.20;99.90
22224;DHT22;11281;52.194;21.006;2023-07-13T01:41:06;17.20;99.90
22224;DHT22;11281;52.194;21.006;2023-07-13T01:45:08;17.20;99.90
22224;DHT22;11281;52.194;21.006;2023-07-13T01:49:10;17.20;99.90
22224;DHT22;11281;52.194;21.006;2023-07-13T01:53:11;17.10;99.90
22224;DHT22;11281;52.194;21.006;2023-07-13T01:57:13;17.00;99.90
22224;DHT22;11281;52.194;21.006;2023-07-13T02:01:15;17.00;99.90
22224;DHT22;11281;52.194;21.006;2023-07-13T02:05:17;17.00;99.90
22224;DHT22;11281;52.194;21.006;2023-07-13T02:09:19;17.00;99.90
22224;DHT22;11281;52.194;21.006;2023-07-13T02:13:20;17.00;99.90
22224;DHT22;11281;52.194;21.006;2023-07-13T02:17:22;16.90;99.90
22224;DHT22;11281;52.194;21.006;2023-07-13T02:21:24;16.90;99.90
22224;DHT22;11281;52.194;21.006;2023-07-13T02:25:26;17.00;99.90
22224;DHT22;11281;52.194;21.006;2023-07-13T02:29:28;17.00;99.90
22224;DHT22;11281;52.194;21.006;2023-07-13T02:33:30;17.00;99.90
22224;DHT22;11281;52.194;21.006;2023-07-13T02:37:31;17.00;99.90
22224;DHT22;11281;52.194;21.006;2023-07-13T02:41:33;17.00;99.90
22224;DHT22;11281;52.194;21.006;2023-07-13T02:45:34;17.00;99.90
22224;DHT22;11281;52.194;21.006;2023-07-13T02:49:36;17.00;99.90
22224;DHT22;11281;52.194;21.006;2023-07-13T02:53:38;17.00;99.90
22224;DHT22;11281;52.194;21.006;2023-07-13T02:57:40;17.00;99.90
22224;DHT22;11281;52.194;21.006;2023-07-13T03:01:42;17.10;99.90
22224;DHT22;11281;52.194;21.006;2023-07-13T03:05:45;17.00;99.90
22224;DHT22;11281;52.194;21.006;2023-07-13T03:09:54;17.00;99.90
22224;DHT22;11281;52.194;21.006;2023-07-13T03:13:58;17.00;99.90
22224;DHT22;11281;52.194;21.006;2023-07-13T03:18:00;17.00;99.90
22224;DHT22;11281;52.194;21.006;2023-07-13T03:22:02;17.00;99.90
22224;DHT22;11281;52.194;21.006;2023-07-13T03:26:07;16.90;99.90
22224;DHT22;11281;52.194;21.006;2023-07-13T03:30:10;16.90;99.90
22224;DHT22;11281;52.194;21.006;2023-07-13T03:34:12;16.80;99.90
22224;DHT22;11281;52.194;21.006;2023-07-13T03:38:14;16.80;99.90
22224;DHT22;11281;52.194;21.006;2023-07-13T03:42:16;16.90;99.90
22224;DHT22;11281;52.194;21.006;2023-07-13T03:46:18;17.00;99.90
22224;DHT22;11281;52.194;21.006;2023-07-13T03:50:20;17.00;99.90
22224;DHT22;11281;52.194;21.006;2023-07-13T03:54:21;17.00;99.90
22224;DHT22;11281;52.194;21.006;2023-07-13T03:58:36;17.10;99.90
22224;DHT22;11281;52.194;21.006;2023-07-13T04:02:38;17.20;99.90
22224;DHT22;11281;52.194;21.006;2023-07-13T04:06:40;17.30;99.90
22224;DHT22;11281;52.194;21.006;2023-07-13T04:10:43;17.40;99.90
22224;DHT22;11281;52.194;21.006;2023-07-13T04:14:44;17.40;99.90
22224;DHT22;11281;52.194;21.006;2023-07-13T04:18:48;17.50;99.90
22224;DHT22;11281;52.194;21.006;2023-07-13T04:22:49;17.60;99.90
22224;DHT22;11281;52.194;21.006;2023-07-13T04:26:51;17.70;99.90
22224;DHT22;11281;52.194;21.006;2023-07-13T04:30:54;17.80;99.90
22224;DHT22;11281;52.194;21.006;2023-07-13T04:34:55;18.00;99.90
22224;DHT22;11281;52.194;21.006;2023-07-13T04:38:59;18.20;99.90
22224;DHT22;11281;52.194;21.006;2023-07-13T04:43:01;18.60;99.90
22224;DHT22;11281;52.194;21.006;2023-07-13T04:47:03;19.00;99.90
22224;DHT22;11281;52.194;21.006;2023-07-13T04:51:05;19.20;99.90
22224;DHT22;11281;52.194;21.006;2023-07-13T04:55:07;19.50;99.90
22224;DHT22;11281;52.194;21.006;2023-07-13T04:59:09;19.80;99.90
22224;DHT22;11281;52.194;21.006;2023-07-13T05:03:11;20.00;99.90
22224;DHT22;11281;52.194;21.006;2023-07-13T05:07:12;20.00;99.90
22224;DHT22;11281;52.194;21.006;2023-07-13T05:11:14;19.90;99.90
22224;DHT22;11281;52.194;21.006;2023-07-13T05:15:16;20.00;99.90
22224;DHT22;11281;52.194;21.006;2023-07-13T05:19:22;20.20;99.90
22224;DHT22;11281;52.194;21.006;2023-07-13T05:23:24;20.10;99.90
22224;DHT22;11281;52.194;21.006;2023-07-13T05:27:26;20.10;99.90
22224;DHT22;11281;52.194;21.006;2023-07-13T05:31:28;20.30;99.90
22224;DHT22;11281;52.194;21.006;2023-07-13T05:35:30;20.40;99.90
22224;DHT22;11281;52.194;21.006;2023-07-13T05:39:32;20.60;99.90
22224;DHT22;11281;52.194;21.006;2023-07-13T05:43:34;20.70;99.90
22224;DHT22;11281;52.194;21.006;2023-07-13T05:47:36;20.70;99.90
22224;DHT22;11281;52.194;21.006;2023-07-13T05:51:38;20.80;99.90
22224;DHT22;11281;52.194;21.006;2023-07-13T05:55:47;21.20;99.90
22224;DHT22;11281;52.194;21.006;2023-07-13T05:59:48;21.50;99.90
22224;DHT22;11281;52.194;21.006;2023-07-13T06:03:50;21.60;99.90
22224;DHT22;11281;52.194;21.006;2023-07-13T06:07:52;21.60;99.90
22224;DHT22;11281;52.194;21.006;2023-07-13T06:11:54;21.60;99.90
22224;DHT22;11281;52.194;21.006;2023-07-13T06:15:55;21.60;99.90
22224;DHT22;11281;52.194;21.006;2023-07-13T06:19:57;21.90;99.90
22224;DHT22;11281;52.194;21.006;2023-07-13T06:23:59;22.60;99.90
22224;DHT22;11281;52.194;21.006;2023-07-13T06:28:01;23.00;99.90
22224;DHT22;11281;52.194;21.006;2023-07-13T06:32:03;22.80;99.90
22224;DHT22;11281;52.194;21.006;2023-07-13T06:36:06;23.30;99.90
22224;DHT22;11281;52.194;21.006;2023-07-13T06:40:09;23.90;99.90
22224;DHT22;11281;52.194;21.006;2023-07-13T06:44:11;24.20;99.90
22224;DHT22;11281;52.194;21.006;2023-07-13T06:48:14;24.30;99.90
22224;DHT22;11281;52.194;21.006;2023-07-13T06:52:16;24.80;99.90
22224;DHT22;11281;52.194;21.006;2023-07-13T06:56:17;25.00;99.90
22224;DHT22;11281;52.194;21.006;2023-07-13T07:00:19;25.10;99.90
22224;DHT22;11281;52.194;21.006;2023-07-13T07:04:21;25.20;99.90
22224;DHT22;11281;52.194;21.006;2023-07-13T07:08:23;25.30;99.90
22224;DHT22;11281;52.194;21.006;2023-07-13T07:12:24;25.60;99.90
22224;DHT22;11281;52.194;21.006;2023-07-13T07:16:26;25.60;99.90
22224;DHT22;11281;52.194;21.006;2023-07-13T07:20:28;25.70;99.90
22224;DHT22;11281;52.194;21.006;2023-07-13T07:24:31;26.10;99.90
22224;DHT22;11281;52.194;21.006;2023-07-13T07:28:33;25.90;99.90
22224;DHT22;11281;52.194;21.006;2023-07-13T07:32:34;25.70;99.90
22224;DHT22;11281;52.194;21.006;2023-07-13T07:36:36;25.70;99.90
22224;DHT22;11281;52.194;21.006;2023-07-13T07:40:39;25.90;99.90
22224;DHT22;11281;52.194;21.006;2023-07-13T07:44:41;25.80;99.90
22224;DHT22;11281;52.194;21.006;2023-07-13T07:48:43;25.90;99.90
22224;DHT22;11281;52.194;21.006;2023-07-13T07:52:44;25.50;99.90
22224;DHT22;11281;52.194;21.006;2023-07-13T07:56:46;25.80;99.90
22224;DHT22;11281;52.194;21.006;2023-07-13T08:00:48;25.20;99.90
22224;DHT22;11281;52.194;21.006;2023-07-13T08:04:49;25.30;99.90
22224;DHT22;11281;52.194;21.006;2023-07-13T08:08:51;25.30;99.90
22224;DHT22;11281;52.194;21.006;2023-07-13T08:12:53;24.90;99.90
22224;DHT22;11281;52.194;21.006;2023-07-13T08:16:55;24.60;99.90
22224;DHT22;11281;52.194;21.006;2023-07-13T08:20:57;24.00;99.90
22224;DHT22;11281;52.194;21.006;2023-07-13T08:25:00;23.80;99.90
22224;DHT22;11281;52.194;21.006;2023-07-13T08:29:02;23.50;99.90
22224;DHT22;11281;52.194;21.006;2023-07-13T08:33:04;23.30;99.90
22224;DHT22;11281;52.194;21.006;2023-07-13T08:37:06;23.10;99.90
22224;DHT22;11281;52.194;21.006;2023-07-13T08:41:16;22.90;99.90
22224;DHT22;11281;52.194;21.006;2023-07-13T08:49:48;22.50;99.90
22224;DHT22;11281;52.194;21.006;2023-07-13T08:53:52;21.70;99.90
22224;DHT22;11281;52.194;21.006;2023-07-13T08:58:06;21.20;99.90
22224;DHT22;11281;52.194;21.006;2023-07-13T09:06:23;20.40;99.90
22224;DHT22;11281;52.194;21.006;2023-07-13T09:10:43;19.90;99.90
22224;DHT22;11281;52.194;21.006;2023-07-13T09:14:52;19.50;99.90
22224;DHT22;11281;52.194;21.006;2023-07-13T09:19:05;19.30;99.90
22224;DHT22;11281;52.194;21.006;2023-07-13T09:23:14;19.40;99.90
22224;DHT22;11281;52.194;21.006;2023-07-13T09:27:29;19.60;99.90
22224;DHT22;11281;52.194;21.006;2023-07-13T09:31:39;19.80;99.90
22224;DHT22;11281;52.194;21.006;2023-07-13T09:35:45;19.70;99.90
22224;DHT22;11281;52.194;21.006;2023-07-13T09:39:46;19.90;99.90
22224;DHT22;11281;52.194;21.006;2023-07-13T09:48:15;19.80;99.90
22224;DHT22;11281;52.194;21.006;2023-07-13T09:52:18;19.70;99.90
22224;DHT22;11281;52.194;21.006;2023-07-13T09:56:27;19.80;99.90
22224;DHT22;11281;52.194;21.006;2023-07-13T10:00:30;20.00;99.90
22224;DHT22;11281;52.194;21.006;2023-07-13T10:04:34;20.30;99.90
22224;DHT22;11281;52.194;21.006;2023-07-13T10:08:35;20.40;99.90
22224;DHT22;11281;52.194;21.006;2023-07-13T10:12:38;20.50;99.90
22224;DHT22;11281;52.194;21.006;2023-07-13T10:16:42;20.40;99.90
22224;DHT22;11281;52.194;21.006;2023-07-13T10:20:46;20.30;99.90
22224;DHT22;11281;52.194;21.006;2023-07-13T10:24:48;20.30;99.90
22224;DHT22;11281;52.194;21.006;2023-07-13T10:28:55;20.10;99.90
22224;DHT22;11281;52.194;21.006;2023-07-13T10:33:01;20.00;99.90
22224;DHT22;11281;52.194;21.006;2023-07-13T10:37:06;20.10;99.90
22224;DHT22;11281;52.194;21.006;2023-07-13T10:41:17;19.70;99.90
22224;DHT22;11281;52.194;21.006;2023-07-13T10:45:22;19.60;99.90
22224;DHT22;11281;52.194;21.006;2023-07-13T10:49:27;19.60;99.90
22224;DHT22;11281;52.194;21.006;2023-07-13T10:53:36;19.30;99.90
22224;DHT22;11281;52.194;21.006;2023-07-13T10:57:42;19.30;99.90
22224;DHT22;11281;52.194;21.006;2023-07-13T11:02:01;19.20;99.90
22224;DHT22;11281;52.194;21.006;2023-07-13T11:27:42;18.90;99.90
22224;DHT22;11281;52.194;21.006;2023-07-13T11:31:57;19.00;99.90
22224;DHT22;11281;52.194;21.006;2023-07-13T11:36:04;19.10;99.90
22224;DHT22;11281;52.194;21.006;2023-07-13T11:40:16;19.10;99.90
22224;DHT22;11281;52.194;21.006;2023-07-13T11:44:23;18.90;99.90
22224;DHT22;11281;52.194;21.006;2023-07-13T11:48:28;18.90;99.90
22224;DHT22;11281;52.194;21.006;2023-07-13T11:52:35;19.10;99.90
22224;DHT22;11281;52.194;21.006;2023-07-13T11:56:40;19.20;99.90
22224;DHT22;11281;52.194;21.006;2023-07-13T12:00:42;19.30;99.90
22224;DHT22;11281;52.194;21.006;2023-07-13T12:04:45;19.30;99.90
22224;DHT22;11281;52.194;21.006;2023-07-13T12:08:46;19.50;99.90
22224;DHT22;11281;52.194;21.006;2023-07-13T12:13:01;19.40;99.90
22224;DHT22;11281;52.194;21.006;2023-07-13T12:17:19;19.30;99.90
22224;DHT22;11281;52.194;21.006;2023-07-13T12:21:25;19.40;99.90
22224;DHT22;11281;52.194;21.006;2023-07-13T12:25:32;19.50;99.90
22224;DHT22;11281;52.194;21.006;2023-07-13T12:29:34;19.80;99.90
22224;DHT22;11281;52.194;21.006;2023-07-13T12:33:39;20.00;99.90
22224;DHT22;11281;52.194;21.006;2023-07-13T12:37:43;19.50;99.90
22224;DHT22;11281;52.194;21.006;2023-07-13T12:41:48;19.40;99.90
22224;DHT22;11281;52.194;21.006;2023-07-13T12:46:18;19.50;99.90
22224;DHT22;11281;52.194;21.006;2023-07-13T12:50:23;19.50;99.90
22224;DHT22;11281;52.194;21.006;2023-07-13T12:54:29;19.40;99.90
22224;DHT22;11281;52.194;21.006;2023-07-13T12:58:37;19.50;99.90
22224;DHT22;11281;52.194;21.006;2023-07-13T13:02:40;19.60;99.90
22224;DHT22;11281;52.194;21.006;2023-07-13T13:06:42;19.30;99.90
22224;DHT22;11281;52.194;21.006;2023-07-13T13:10:44;19.30;99.90
22224;DHT22;11281;52.194;21.006;2023-07-13T13:14:47;19.30;99.90
22224;DHT22;11281;52.194;21.006;2023-07-13T13:18:51;19.30;99.90
22224;DHT22;11281;52.194;21.006;2023-07-13T13:22:56;19.30;99.90
22224;DHT22;11281;52.194;21.006;2023-07-13T13:26:57;19.30;99.90
22224;DHT22;11281;52.194;21.006;2023-07-13T13:30:59;19.30;99.90
22224;DHT22;11281;52.194;21.006;2023-07-13T13:35:01;19.30;99.90
22224;DHT22;11281;52.194;21.006;2023-07-13T13:39:05;19.30;99.90
22224;DHT22;11281;52.194;21.006;2023-07-13T13:43:18;19.40;99.90
22224;DHT22;11281;52.194;21.006;2023-07-13T13:47:31;19.40;99.90
22224;DHT22;11281;52.194;21.006;2023-07-13T13:51:34;19.40;99.90
22224;DHT22;11281;52.194;21.006;2023-07-13T13:55:35;19.40;99.90
22224;DHT22;11281;52.194;21.006;2023-07-13T13:59:36;19.40;99.90
22224;DHT22;11281;52.194;21.006;2023-07-13T14:03:40;19.40;99.90
22224;DHT22;11281;52.194;21.006;2023-07-13T14:07:42;19.40;99.90
22224;DHT22;11281;52.194;21.006;2023-07-13T14:11:46;19.50;99.90
22224;DHT22;11281;52.194;21.006;2023-07-13T14:15:49;19.50;99.90
22224;DHT22;11281;52.194;21.006;2023-07-13T14:19:52;19.70;99.90
22224;DHT22;11281;52.194;21.006;2023-07-13T14:23:58;19.50;99.90
22224;DHT22;11281;52.194;21.006;2023-07-13T14:28:00;19.50;99.90
22224;DHT22;11281;52.194;21.006;2023-07-13T14:32:11;19.80;99.90
22224;DHT22;11281;52.194;21.006;2023-07-13T14:36:32;19.90;99.90
22224;DHT22;11281;52.194;21.006;2023-07-13T14:40:36;19.50;99.90
22224;DHT22;11281;52.194;21.006;2023-07-13T14:44:38;19.50;99.90
22224;DHT22;11281;52.194;21.006;2023-07-13T14:48:40;19.40;99.90
22224;DHT22;11281;52.194;21.006;2023-07-13T14:52:45;19.40;99.90
22224;DHT22;11281;52.194;21.006;2023-07-13T14:56:48;19.50;99.90
22224;DHT22;11281;52.194;21.006;2023-07-13T15:00:50;19.50;99.90
22224;DHT22;11281;52.194;21.006;2023-07-13T15:04:54;19.30;99.90
22224;DHT22;11281;52.194;21.006;2023-07-13T15:08:56;19.30;99.90
22224;DHT22;11281;52.194;21.006;2023-07-13T15:17:30;19.10;99.90
22224;DHT22;11281;52.194;21.006;2023-07-13T15:21:33;19.00;99.90
22224;DHT22;11281;52.194;21.006;2023-07-13T15:25:35;19.10;99.90
22224;DHT22;11281;52.194;21.006;2023-07-13T15:29:37;19.10;99.90
22224;DHT22;11281;52.194;21.006;2023-07-13T15:33:38;19.00;99.90
22224;DHT22;11281;52.194;21.006;2023-07-13T15:37:40;19.10;99.90
22224;DHT22;11281;52.194;21.006;2023-07-13T15:41:42;19.20;99.90
22224;DHT22;11281;52.194;21.006;2023-07-13T15:45:47;19.20;99.90
22224;DHT22;11281;52.194;21.006;2023-07-13T15:49:49;19.20;99.90
22224;DHT22;11281;52.194;21.006;2023-07-13T15:53:54;19.20;99.90
22224;DHT22;11281;52.194;21.006;2023-07-13T15:57:59;19.10;99.90
22224;DHT22;11281;52.194;21.006;2023-07-13T16:02:11;19.10;99.90
22224;DHT22;11281;52.194;21.006;2023-07-13T16:06:19;19.10;99.90
22224;DHT22;11281;52.194;21.006;2023-07-13T16:10:34;19.00;99.90
22224;DHT22;11281;52.194;21.006;2023-07-13T16:14:42;19.00;99.90
22224;DHT22;11281;52.194;21.006;2023-07-13T16:18:43;18.90;99.90
22224;DHT22;11281;52.194;21.006;2023-07-13T16:22:47;19.00;99.90
22224;DHT22;11281;52.194;21.006;2023-07-13T16:26:50;19.00;99.90
22224;DHT22;11281;52.194;21.006;2023-07-13T16:30:53;19.00;99.90
22224;DHT22;11281;52.194;21.006;2023-07-13T16:34:55;19.00;99.90
22224;DHT22;11281;52.194;21.006;2023-07-13T16:38:57;19.00;99.90
22224;DHT22;11281;52.194;21.006;2023-07-13T16:42:59;19.10;99.90
22224;DHT22;11281;52.194;21.006;2023-07-13T16:47:08;19.10;99.90
22224;DHT22;11281;52.194;21.006;2023-07-13T16:51:13;19.10;99.90
22224;DHT22;11281;52.194;21.006;2023-07-13T16:55:17;19.10;99.90
22224;DHT22;11281;52.194;21.006;2023-07-13T16:59:33;19.00;99.90
22224;DHT22;11281;52.194;21.006;2023-07-13T17:03:36;19.10;99.90
22224;DHT22;11281;52.194;21.006;2023-07-13T17:07:38;19.00;99.90
22224;DHT22;11281;52.194;21.006;2023-07-13T17:11:41;19.00;99.90
22224;DHT22;11281;52.194;21.006;2023-07-13T17:15:48;19.00;99.90
22224;DHT22;11281;52.194;21.006;2023-07-13T17:19:54;19.00;99.90
22224;DHT22;11281;52.194;21.006;2023-07-13T17:23:55;19.00;99.90
22224;DHT22;11281;52.194;21.006;2023-07-13T17:27:58;19.00;99.90
22224;DHT22;11281;52.194;21.006;2023-07-13T17:32:00;19.00;99.90
22224;DHT22;11281;52.194;21.006;2023-07-13T17:36:04;19.00;99.90
22224;DHT22;11281;52.194;21.006;2023-07-13T17:40:14;19.00;99.90
22224;DHT22;11281;52.194;21.006;2023-07-13T17:44:19;19.00;99.90
22224;DHT22;11281;52.194;21.006;2023-07-13T17:48:23;19.10;99.90
22224;DHT22;11281;52.194;21.006;2023-07-13T17:52:26;19.10;99.90
22224;DHT22;11281;52.194;21.006;2023-07-13T17:56:30;19.10;99.90
22224;DHT22;11281;52.194;21.006;2023-07-13T18:00:36;19.10;99.90
22224;DHT22;11281;52.194;21.006;2023-07-13T18:04:40;19.10;99.90
22224;DHT22;11281;52.194;21.006;2023-07-13T18:08:44;19.10;99.90
22224;DHT22;11281;52.194;21.006;2023-07-13T18:12:48;19.10;99.90
22224;DHT22;11281;52.194;21.006;2023-07-13T18:16:55;19.00;99.90
22224;DHT22;11281;52.194;21.006;2023-07-13T18:21:02;19.00;99.90
22224;DHT22;11281;52.194;21.006;2023-07-13T18:25:12;19.00;99.90
22224;DHT22;11281;52.194;21.006;2023-07-13T18:29:20;18.90;99.90
22224;DHT22;11281;52.194;21.006;2023-07-13T18:33:25;18.90;99.90
22224;DHT22;11281;52.194;21.006;2023-07-13T18:37:29;18.70;99.90
22224;DHT22;11281;52.194;21.006;2023-07-13T18:41:32;18.60;99.90
22224;DHT22;11281;52.194;21.006;2023-07-13T18:45:33;18.50;99.90
22224;DHT22;11281;52.194;21.006;2023-07-13T18:49:35;18.40;99.90
22224;DHT22;11281;52.194;21.006;2023-07-13T18:53:37;18.30;99.90
22224;DHT22;11281;52.194;21.006;2023-07-13T18:57:39;18.20;99.90
22224;DHT22;11281;52.194;21.006;2023-07-13T19:01:41;18.20;99.90
22224;DHT22;11281;52.194;21.006;2023-07-13T19:05:44;18.00;99.90
22224;DHT22;11281;52.194;21.006;2023-07-13T19:09:46;17.90;99.90
22224;DHT22;11281;52.194;21.006;2023-07-13T19:13:48;17.80;99.90
22224;DHT22;11281;52.194;21.006;2023-07-13T19:17:53;17.70;99.90
22224;DHT22;11281;52.194;21.006;2023-07-13T19:21:55;17.60;99.90
22224;DHT22;11281;52.194;21.006;2023-07-13T19:26:02;17.40;99.90
22224;DHT22;11281;52.194;21.006;2023-07-13T19:30:10;17.30;99.90
22224;DHT22;11281;52.194;21.006;2023-07-13T19:34:18;17.30;99.90
22224;DHT22;11281;52.194;21.006;2023-07-13T19:38:24;17.30;99.90
22224;DHT22;11281;52.194;21.006;2023-07-13T19:42:26;17.30;99.90
22224;DHT22;11281;52.194;21.006;2023-07-13T19:46:33;17.30;99.90
22224;DHT22;11281;52.194;21.006;2023-07-13T19:50:37;17.20;99.90
22224;DHT22;11281;52.194;21.006;2023-07-13T19:54:43;17.30;99.90
22224;DHT22;11281;52.194;21.006;2023-07-13T19:58:45;17.30;99.90
22224;DHT22;11281;52.194;21.006;2023-07-13T20:02:51;17.20;99.90
22224;DHT22;11281;52.194;21.006;2023-07-13T20:06:53;17.30;99.90
22224;DHT22;11281;52.194;21.006;2023-07-13T20:10:55;17.30;99.90
22224;DHT22;11281;52.194;21.006;2023-07-13T20:14:57;17.40;99.90
22224;DHT22;11281;52.194;21.006;2023-07-13T20:19:00;17.40;99.90
22224;DHT22;11281;52.194;21.006;2023-07-13T20:23:13;17.40;99.90
22224;DHT22;11281;52.194;21.006;2023-07-13T20:27:22;17.40;99.90
22224;DHT22;11281;52.194;21.006;2023-07-13T20:31:24;17.50;99.90
22224;DHT22;11281;52.194;21.006;2023-07-13T20:35:32;17.50;99.90
22224;DHT22;11281;52.194;21.006;2023-07-13T20:39:35;17.60;99.90
22224;DHT22;11281;52.194;21.006;2023-07-13T20:43:37;17.60;99.90
22224;DHT22;11281;52.194;21.006;2023-07-13T20:47:39;17.60;99.90
22224;DHT22;11281;52.194;21.006;2023-07-13T20:51:47;17.60;99.90
22224;DHT22;11281;52.194;21.006;2023-07-13T20:55:52;17.60;99.90
22224;DHT22;11281;52.194;21.006;2023-07-13T20:59:54;17.60;99.90
22224;DHT22;11281;52.194;21.006;2023-07-13T21:04:03;17.60;99.90
22224;DHT22;11281;52.194;21.006;2023-07-13T21:08:19;17.60;99.90
22224;DHT22;11281;52.194;21.006;2023-07-13T21:12:22;17.60;99.90
22224;DHT22;11281;52.194;21.006;2023-07-13T21:16:25;17.70;99.90
22224;DHT22;11281;52.194;21.006;2023-07-13T21:20:36;17.70;99.90
22224;DHT22;11281;52.194;21.006;2023-07-13T21:24:39;17.70;99.90
22224;DHT22;11281;52.194;21.006;2023-07-13T21:28:47;17.70;99.90
22224;DHT22;11281;52.194;21.006;2023-07-13T21:32:52;17.70;99.90
22224;DHT22;11281;52.194;21.006;2023-07-13T21:36:53;17.70;99.90
22224;DHT22;11281;52.194;21.006;2023-07-13T21:41:02;17.70;99.90
22224;DHT22;11281;52.194;21.006;2023-07-13T21:45:18;17.70;99.90
22224;DHT22;11281;52.194;21.006;2023-07-13T21:49:22;17.60;99.90
22224;DHT22;11281;52.194;21.006;2023-07-13T21:57:25;17.50;99.90
22224;DHT22;11281;52.194;21.006;2023-07-13T22:01:31;17.50;99.90
22224;DHT22;11281;52.194;21.006;2023-07-13T22:05:37;17.50;99.90
22224;DHT22;11281;52.194;21.006;2023-07-13T22:09:39;17.50;99.90
22224;DHT22;11281;52.194;21.006;2023-07-13T22:13:41;17.50;99.90
22224;DHT22;11281;52.194;21.006;2023-07-13T22:17:48;17.40;99.90
22224;DHT22;11281;52.194;21.006;2023-07-13T22:21:49;17.40;99.90
22224;DHT22;11281;52.194;21.006;2023-07-13T22:25:54;17.40;99.90
22224;DHT22;11281;52.194;21.006;2023-07-13T22:29:57;17.30;99.90
22224;DHT22;11281;52.194;21.006;2023-07-13T22:33:58;17.30;99.90
22224;DHT22;11281;52.194;21.006;2023-07-13T22:38:00;17.20;99.90
22224;DHT22;11281;52.194;21.006;2023-07-13T22:42:02;17.10;99.90
22224;DHT22;11281;52.194;21.006;2023-07-13T22:46:07;17.10;99.90
22224;DHT22;11281;52.194;21.006;2023-07-13T22:50:16;17.00;99.90
22224;DHT22;11281;52.194;21.006;2023-07-13T22:54:18;17.00;99.90
22224;DHT22;11281;52.194;21.006;2023-07-13T22:58:23;16.90;99.90
22224;DHT22;11281;52.194;21.006;2023-07-13T23:02:27;16.90;99.90
22224;DHT22;11281;52.194;21.006;2023-07-13T23:06:35;16.70;99.90
22224;DHT22;11281;52.194;21.006;2023-07-13T23:10:36;16.70;99.90
22224;DHT22;11281;52.194;21.006;2023-07-13T23:14:38;16.80;99.90
22224;DHT22;11281;52.194;21.006;2023-07-13T23:18:41;16.80;99.90
22224;DHT22;11281;52.194;21.006;2023-07-13T23:22:42;16.60;99.90
22224;DHT22;11281;52.194;21.006;2023-07-13T23:26:44;16.60;99.90
22224;DHT22;11281;52.194;21.006;2023-07-13T23:30:47;16.50;99.90
22224;DHT22;11281;52.194;21.006;2023-07-13T23:34:50;16.50;99.90
22224;DHT22;11281;52.194;21.006;2023-07-13T23:38:52;16.50;99.90
22224;DHT22;11281;52.194;21.006;2023-07-13T23:42:54;16.30;99.90
22224;DHT22;11281;52.194;21.006;2023-07-13T23:46:55;16.30;99.90
22224;DHT22;11281;52.194;21.006;2023-07-13T23:50:57;16.30;99.90
22224;DHT22;11281;52.194;21.006;2023-07-13T23:54:59;16.20;99.90
22224;DHT22;11281;52.194;21.006;2023-07-13T23:59:01;16.10;99.90
